createdAt,value
2023-05-07T00:03:15.074Z,5.74
2023-05-07T00:08:21.627Z,5.73
2023-05-07T00:13:27.255Z,5.64
2023-05-07T00:18:32.913Z,5.56
2023-05-07T00:23:38.415Z,5.49
2023-05-07T00:28:44.434Z,5.48
2023-05-07T00:33:49.990Z,5.48
2023-05-07T00:38:58.213Z,5.42
2023-05-07T00:44:03.652Z,5.41
2023-05-07T00:49:09.448Z,5.46
2023-05-07T00:54:15.852Z,5.44
2023-05-07T00:59:21.636Z,5.39
2023-05-07T01:04:27.391Z,5.34
2023-05-07T01:09:33.596Z,5.26
2023-05-07T01:14:39.123Z,5.21
2023-05-07T01:19:45.190Z,5.27
2023-05-07T01:24:51.118Z,5.37
2023-05-07T01:29:57.125Z,5.37
2023-05-07T01:35:06.244Z,5.30
2023-05-07T01:40:13.209Z,5.25
2023-05-07T01:45:19.275Z,5.28
2023-05-07T01:50:26.251Z,5.29
2023-05-07T01:55:32.454Z,5.24
2023-05-07T02:00:38.045Z,5.19
2023-05-07T02:05:44.172Z,5.18
2023-05-07T02:11:06.607Z,5.15
2023-05-07T02:16:15.385Z,5.14
2023-05-07T02:21:21.364Z,5.12
2023-05-07T02:26:26.874Z,5.10
2023-05-07T02:31:34.939Z,5.08
2023-05-07T02:36:41.007Z,5.04
2023-05-07T02:41:49.873Z,5.02
2023-05-07T02:46:55.514Z,5.03
2023-05-07T02:52:01.934Z,5.00
2023-05-07T02:57:07.581Z,4.99
2023-05-07T03:02:13.083Z,5.04
2023-05-07T03:07:19.518Z,5.09
2023-05-07T03:12:25.218Z,5.09
2023-05-07T03:17:31.333Z,5.06
2023-05-07T03:22:36.908Z,5.09
2023-05-07T03:27:43.317Z,5.14
2023-05-07T03:32:49.621Z,5.14
2023-05-07T03:37:55.564Z,5.15
2023-05-07T03:43:02.047Z,5.13
2023-05-07T03:48:08.796Z,5.12
2023-05-07T03:53:14.757Z,5.13
2023-05-07T03:58:20.998Z,5.12
2023-05-07T04:03:27.146Z,5.22
2023-05-07T04:08:33.507Z,5.28
2023-05-07T04:13:39.277Z,5.33
2023-05-07T04:18:45.799Z,5.36
2023-05-07T04:23:51.641Z,5.41
2023-05-07T04:28:58.853Z,5.48
2023-05-07T04:34:06.555Z,5.51
2023-05-07T04:39:12.360Z,5.50
2023-05-07T04:44:18.487Z,5.59
2023-05-07T04:49:24.474Z,5.71
2023-05-07T04:54:30.627Z,5.77
2023-05-07T04:59:36.272Z,5.83
2023-05-07T05:04:42.597Z,5.87
2023-05-07T05:09:48.929Z,6.01
2023-05-07T05:14:54.573Z,6.13
2023-05-07T05:20:01.011Z,6.35
2023-05-07T05:25:08.653Z,6.60
2023-05-07T05:30:15.250Z,6.70
2023-05-07T05:35:23.410Z,6.85
2023-05-07T05:40:29.850Z,6.93
2023-05-07T05:45:35.532Z,6.87
2023-05-07T05:50:41.074Z,6.78
2023-05-07T05:55:47.606Z,6.84
2023-05-07T06:00:54.688Z,6.80
2023-05-07T06:06:01.840Z,6.83
2023-05-07T06:11:07.550Z,6.94
2023-05-07T06:16:15.272Z,7.01
2023-05-07T06:21:21.071Z,7.16
2023-05-07T06:26:27.403Z,7.19
2023-05-07T06:31:33.267Z,7.30
2023-05-07T06:36:45.300Z,7.36
2023-05-07T06:41:58.561Z,7.30
2023-05-07T06:47:07.018Z,7.27
2023-05-07T06:52:13.182Z,7.35
2023-05-07T06:57:19.304Z,7.40
2023-05-07T07:02:25.322Z,7.57
2023-05-07T07:07:31.567Z,7.88
2023-05-07T07:12:37.060Z,8.05
2023-05-07T07:17:43.295Z,8.29
2023-05-07T07:22:49.434Z,8.61
2023-05-07T07:27:55.792Z,8.65
2023-05-07T07:33:04.726Z,8.49
2023-05-07T07:38:18.613Z,8.46
2023-05-07T07:43:33.364Z,8.56
2023-05-07T07:48:39.447Z,8.65
2023-05-07T07:53:45.005Z,8.60
2023-05-07T07:58:51.054Z,8.67
2023-05-07T08:03:59.775Z,8.74
2023-05-07T08:09:06.120Z,9.06
2023-05-07T08:14:12.685Z,9.29
2023-05-07T08:19:18.748Z,9.45
2023-05-07T08:24:24.810Z,10.22
2023-05-07T08:29:30.847Z,10.14
2023-05-07T08:34:36.598Z,10.14
2023-05-07T08:39:43.518Z,11.08
2023-05-07T08:44:58.514Z,12.74
2023-05-07T08:50:05.861Z,12.72
2023-05-07T08:55:14.233Z,12.00
2023-05-07T09:00:21.305Z,11.97
2023-05-07T09:05:29.937Z,11.84
2023-05-07T09:10:36.585Z,12.21
2023-05-07T09:15:44.135Z,12.28
2023-05-07T09:20:49.957Z,12.23
2023-05-07T09:26:03.210Z,12.05
2023-05-07T09:31:11.920Z,12.75
2023-05-07T09:36:18.939Z,12.49
2023-05-07T09:41:25.094Z,11.91
2023-05-07T09:46:43.077Z,12.57
2023-05-07T09:51:56.170Z,13.74
2023-05-07T09:57:04.655Z,14.18
2023-05-07T10:02:13.340Z,13.98
2023-05-07T10:07:26.861Z,15.03
2023-05-07T10:12:39.940Z,16.25
2023-05-07T10:17:49.376Z,17.34
2023-05-07T10:22:57.313Z,16.78
2023-05-07T10:28:11.748Z,16.45
2023-05-07T10:33:18.159Z,15.70
2023-05-07T10:38:24.289Z,14.65
2023-05-07T10:43:45.029Z,13.99
2023-05-07T10:49:12.775Z,13.82
2023-05-07T10:55:22.966Z,13.92
2023-05-07T11:00:48.695Z,13.22
2023-05-07T11:06:14.373Z,12.40
2023-05-07T11:11:53.601Z,12.38
2023-05-07T11:17:16.214Z,12.65
2023-05-07T11:22:43.100Z,12.76
2023-05-07T11:27:56.598Z,13.22
2023-05-07T11:33:11.575Z,12.77
2023-05-07T11:38:20.604Z,12.11
2023-05-07T11:43:26.997Z,11.72
2023-05-07T11:48:33.032Z,11.92
2023-05-07T11:53:41.696Z,12.29
2023-05-07T11:58:49.202Z,12.95
2023-05-07T12:03:55.170Z,13.56
2023-05-07T12:09:01.711Z,13.73
2023-05-07T12:14:09.511Z,13.48
2023-05-07T12:19:17.943Z,13.53
2023-05-07T12:24:23.913Z,13.47
2023-05-07T12:29:31.104Z,13.39
2023-05-07T12:34:37.631Z,13.23
2023-05-07T12:39:50.113Z,13.28
2023-05-07T12:44:55.562Z,13.32
2023-05-07T12:50:01.705Z,13.32
2023-05-07T12:55:14.835Z,13.67
2023-05-07T13:00:35.414Z,14.14
2023-05-07T13:05:41.719Z,14.27
2023-05-07T13:10:47.087Z,14.38
2023-05-07T13:15:52.470Z,14.13
2023-05-07T13:20:59.241Z,13.76
2023-05-07T13:26:18.462Z,13.48
2023-05-07T13:31:31.358Z,13.73
2023-05-07T13:36:41.090Z,13.73
2023-05-07T13:41:47.900Z,13.65
2023-05-07T13:46:53.321Z,13.62
2023-05-07T13:51:59.225Z,13.48
2023-05-07T13:57:05.005Z,13.43
2023-05-07T14:02:10.622Z,13.18
2023-05-07T14:07:16.382Z,13.13
2023-05-07T14:12:21.828Z,13.17
2023-05-07T14:17:28.087Z,13.29
2023-05-07T14:22:33.806Z,13.12
2023-05-07T14:27:39.591Z,12.89
2023-05-07T14:32:46.140Z,12.81
2023-05-07T14:37:51.787Z,12.80
2023-05-07T14:42:58.423Z,12.81
2023-05-07T14:48:04.471Z,12.80
2023-05-07T14:53:09.981Z,12.79
2023-05-07T14:58:15.492Z,12.61
2023-05-07T15:03:21.329Z,12.33
2023-05-07T15:08:27.828Z,12.26
2023-05-07T15:13:34.013Z,12.16
2023-05-07T15:18:39.490Z,12.17
2023-05-07T15:23:45.960Z,12.17
2023-05-07T15:28:51.869Z,12.07
2023-05-07T15:33:57.571Z,12.04
2023-05-07T15:39:04.575Z,12.02
2023-05-07T15:44:10.951Z,11.99
2023-05-07T15:49:17.161Z,11.93
2023-05-07T15:54:23.924Z,11.93
2023-05-07T15:59:30.075Z,11.93
2023-05-07T16:04:35.985Z,11.86
2023-05-07T16:09:41.727Z,11.80
2023-05-07T16:14:49.744Z,11.78
2023-05-07T16:19:55.661Z,11.74
2023-05-07T16:25:02.269Z,11.64
2023-05-07T16:30:09.896Z,11.54
2023-05-07T16:35:15.528Z,11.41
2023-05-07T16:40:21.304Z,11.31
2023-05-07T16:45:26.859Z,11.25
2023-05-07T16:50:32.614Z,11.21
2023-05-07T16:55:39.636Z,11.15
2023-05-07T17:05:55.144Z,10.97
2023-05-07T17:11:00.699Z,10.87
2023-05-07T17:16:07.145Z,10.74
2023-05-07T17:21:13.036Z,10.66
2023-05-07T17:26:18.672Z,10.57
2023-05-07T17:31:24.789Z,10.47
2023-05-07T17:36:31.443Z,10.35
2023-05-07T17:41:37.988Z,10.15
2023-05-07T17:46:43.780Z,9.99
2023-05-07T17:51:54.609Z,9.83
2023-05-07T17:57:01.371Z,9.66
2023-05-07T18:02:07.045Z,9.46
2023-05-07T18:07:12.538Z,9.26
2023-05-07T18:12:18.408Z,9.06
2023-05-07T18:17:24.508Z,8.79
2023-05-07T18:22:30.575Z,8.66
2023-05-07T18:27:36.379Z,8.53
2023-05-07T18:32:42.343Z,8.38
2023-05-07T18:37:48.178Z,8.21
2023-05-07T18:42:54.061Z,8.05
2023-05-07T18:48:00.012Z,7.91
2023-05-07T18:53:05.984Z,7.79
2023-05-07T18:58:11.703Z,7.64
2023-05-07T19:03:17.601Z,7.48
2023-05-07T19:08:23.257Z,7.21
2023-05-07T19:13:29.140Z,7.00
2023-05-07T19:18:34.936Z,6.79
2023-05-07T19:23:43.461Z,6.59
2023-05-07T19:28:57.003Z,6.38
2023-05-07T19:34:16.267Z,6.17
2023-05-07T19:39:22.623Z,6.07
2023-05-07T19:44:31.086Z,5.98
2023-05-07T19:49:38.715Z,5.84
2023-05-07T19:54:44.680Z,5.76
2023-05-07T20:02:59.175Z,5.60
2023-05-07T20:08:04.982Z,5.36
2023-05-07T20:13:10.708Z,5.19
2023-05-07T20:18:17.527Z,5.01
2023-05-07T20:23:23.445Z,4.91
2023-05-07T20:28:28.815Z,4.90
2023-05-07T20:33:35.676Z,4.93
2023-05-07T20:38:40.980Z,4.97
2023-05-07T20:43:46.358Z,4.97
2023-05-07T20:48:52.641Z,4.86
2023-05-07T20:53:58.062Z,4.71
2023-05-07T20:59:03.415Z,4.53
2023-05-07T21:04:09.680Z,4.38
2023-05-07T21:09:15.464Z,4.20
2023-05-07T21:14:21.157Z,4.05
2023-05-07T21:19:26.921Z,3.98
2023-05-07T21:24:32.791Z,3.95
2023-05-07T21:29:38.303Z,3.86
2023-05-07T21:34:43.685Z,3.88
2023-05-07T21:39:49.112Z,3.85
2023-05-07T21:44:54.663Z,3.74
2023-05-07T21:50:00.422Z,3.52
2023-05-07T21:55:07.342Z,3.37
2023-05-07T22:00:23.773Z,3.32
2023-05-07T22:05:29.267Z,3.35
2023-05-07T22:10:34.789Z,3.34
2023-05-07T22:15:53.079Z,3.30
2023-05-07T22:21:01.962Z,3.24
2023-05-07T22:32:06.863Z,2.89
2023-05-07T22:37:12.468Z,2.79
2023-05-07T22:42:18.080Z,2.81
2023-05-07T22:47:23.627Z,2.71
2023-05-07T22:52:31.727Z,2.70
2023-05-07T22:57:37.174Z,2.69
2023-05-07T23:02:42.662Z,2.66
2023-05-07T23:07:48.363Z,2.54
2023-05-07T23:12:54.268Z,2.40
2023-05-07T23:18:00.276Z,2.33
2023-05-07T23:23:05.757Z,2.38
2023-05-07T23:28:11.239Z,2.40
2023-05-07T23:33:16.725Z,2.30
2023-05-07T23:38:22.113Z,2.15
2023-05-07T23:43:27.886Z,2.04
2023-05-07T23:48:33.312Z,2.03
2023-05-07T23:53:38.652Z,1.92
2023-05-07T23:58:44.075Z,1.76
